createdAt,value
2018-09-02T00:00:28.579Z,1010.21
2018-09-02T00:01:09.109Z,1010.21
2018-09-02T00:01:49.628Z,1010.23
2018-09-02T00:02:30.149Z,1010.19
2018-09-02T00:03:10.661Z,1010.23
2018-09-02T00:03:51.179Z,1010.21
2018-09-02T00:04:31.695Z,1010.22
2018-09-02T00:05:12.204Z,1010.23
2018-09-02T00:05:52.721Z,1010.19
2018-09-02T00:06:33.244Z,1010.22
2018-09-02T00:07:13.759Z,1010.21
2018-09-02T00:07:54.272Z,1010.26
2018-09-02T00:08:34.782Z,1010.22
2018-09-02T00:09:15.297Z,1010.2
2018-09-02T00:09:55.813Z,1010.17
2018-09-02T00:10:36.326Z,1010.21
2018-09-02T00:11:16.847Z,1010.18
2018-09-02T00:11:57.372Z,1010.15
2018-09-02T00:12:37.886Z,1010.17
2018-09-02T00:13:18.417Z,1010.15
2018-09-02T00:13:58.929Z,1010.21
2018-09-02T00:14:39.447Z,1010.16
2018-09-02T00:15:19.974Z,1010.19
2018-09-02T00:16:00.489Z,1010.2
2018-09-02T00:16:40.990Z,1010.2
2018-09-02T00:17:21.507Z,1010.17
2018-09-02T00:18:02.025Z,1010.19
2018-09-02T00:18:42.553Z,1010.19
2018-09-02T00:19:23.084Z,1010.2
2018-09-02T00:20:03.602Z,1010.21
2018-09-02T00:20:44.140Z,1010.22
2018-09-02T00:21:24.650Z,1010.19
2018-09-02T00:22:05.175Z,1010.25
2018-09-02T00:22:45.695Z,1010.29
2018-09-02T00:23:26.217Z,1010.25
2018-09-02T00:24:06.737Z,1010.28
2018-09-02T00:24:47.291Z,1010.29
2018-09-02T00:25:27.802Z,1010.32
2018-09-02T00:26:08.322Z,1010.26
2018-09-02T00:26:48.842Z,1010.33
2018-09-02T00:27:29.354Z,1010.27
2018-09-02T00:28:09.881Z,1010.25
2018-09-02T00:28:50.404Z,1010.26
2018-09-02T00:29:31.099Z,1010.28
2018-09-02T00:30:11.621Z,1010.26
2018-09-02T00:30:52.135Z,1010.23
2018-09-02T00:31:32.649Z,1010.31
2018-09-02T00:32:13.167Z,1010.29
2018-09-02T00:32:53.706Z,1010.27
2018-09-02T00:33:34.210Z,1010.31
2018-09-02T00:34:14.723Z,1010.29
2018-09-02T00:34:55.244Z,1010.34
2018-09-02T00:35:35.758Z,1010.3
2018-09-02T00:36:16.325Z,1010.25
2018-09-02T00:36:56.842Z,1010.28
2018-09-02T00:37:37.368Z,1010.28
2018-09-02T00:38:17.904Z,1010.27
2018-09-02T00:38:58.420Z,1010.28
2018-09-02T00:39:38.943Z,1010.3
2018-09-02T00:40:19.482Z,1010.26
2018-09-02T00:40:59.992Z,1010.29
2018-09-02T00:41:40.529Z,1010.27
2018-09-02T00:42:21.051Z,1010.31
2018-09-02T00:43:01.617Z,1010.32
2018-09-02T00:43:42.101Z,1010.3
2018-09-02T00:44:22.626Z,1010.29
2018-09-02T00:45:03.142Z,1010.28
2018-09-02T00:45:43.663Z,1010.28
2018-09-02T00:46:24.189Z,1010.3
2018-09-02T00:47:04.706Z,1010.26
2018-09-02T00:47:45.224Z,1010.24
2018-09-02T00:48:25.750Z,1010.25
2018-09-02T00:49:06.285Z,1010.21
2018-09-02T00:49:46.812Z,1010.17
2018-09-02T00:50:27.330Z,1010.19
2018-09-02T00:51:07.852Z,1010.18
2018-09-02T00:51:48.361Z,1010.12
2018-09-02T00:52:28.884Z,1010.14
2018-09-02T00:53:09.412Z,1010.16
2018-09-02T00:53:49.925Z,1010.15
2018-09-02T00:54:30.456Z,1010.13
2018-09-02T00:55:10.962Z,1010.11
2018-09-02T00:55:51.767Z,1010.12
2018-09-02T00:56:32.278Z,1010.11
2018-09-02T00:57:12.799Z,1010.16
2018-09-02T00:57:53.311Z,1010.12
2018-09-02T00:58:33.836Z,1010.07
2018-09-02T00:59:14.352Z,1010.12
2018-09-02T00:59:54.863Z,1010.11
2018-09-02T01:00:35.387Z,1010.1
2018-09-02T01:01:15.942Z,1010.08
2018-09-02T01:01:56.418Z,1010.1
2018-09-02T01:02:36.931Z,1010.09
2018-09-02T01:03:17.456Z,1010.09
2018-09-02T01:03:57.981Z,1010.15
2018-09-02T01:04:38.505Z,1010.13
2018-09-02T01:05:19.076Z,1010.08
2018-09-02T01:05:59.595Z,1010.11
2018-09-02T01:06:40.145Z,1010.12
2018-09-02T01:07:20.654Z,1010.09
2018-09-02T01:08:01.168Z,1010.11
2018-09-02T01:08:41.681Z,1010.18
2018-09-02T01:09:22.211Z,1010.16
2018-09-02T01:10:02.723Z,1010.15
2018-09-02T01:10:43.243Z,1010.17
2018-09-02T01:11:23.776Z,1010.13
2018-09-02T01:12:04.358Z,1010.13
2018-09-02T01:12:44.876Z,1010.13
2018-09-02T01:13:25.412Z,1010.12
2018-09-02T01:14:05.932Z,1010.11
2018-09-02T01:14:46.453Z,1010.11
2018-09-02T01:15:26.971Z,1010.13
2018-09-02T01:16:07.507Z,1010.14
2018-09-02T01:16:48.024Z,1010.12
2018-09-02T01:17:28.541Z,1010.11
2018-09-02T01:18:09.071Z,1010.13
2018-09-02T01:18:49.614Z,1010.1
2018-09-02T01:19:30.147Z,1010.16
2018-09-02T01:20:10.664Z,1010.13
2018-09-02T01:20:51.218Z,1010.15
2018-09-02T01:21:31.826Z,1010.16
2018-09-02T01:22:12.362Z,1010.15
2018-09-02T01:22:52.939Z,1010.17
2018-09-02T01:23:33.419Z,1010.13
2018-09-02T01:24:13.931Z,1010.16
2018-09-02T01:24:54.478Z,1010.16
2018-09-02T01:25:34.964Z,1010.15
2018-09-02T01:26:15.584Z,1010.15
2018-09-02T01:26:56.099Z,1010.14
2018-09-02T01:27:36.625Z,1010.18
2018-09-02T01:28:17.149Z,1010.15
2018-09-02T01:28:57.663Z,1010.1
2018-09-02T01:29:38.193Z,1010.12
2018-09-02T01:30:18.706Z,1010.08
2018-09-02T01:30:59.222Z,1010.1
2018-09-02T01:31:39.744Z,1010.06
2018-09-02T01:32:20.249Z,1010.05
2018-09-02T01:33:00.771Z,1010.05
2018-09-02T01:33:41.493Z,1010.04
2018-09-02T01:34:22.018Z,1010.02
2018-09-02T01:35:02.541Z,1010.06
2018-09-02T01:35:43.066Z,1010.04
2018-09-02T01:36:23.574Z,1010.04
2018-09-02T01:37:04.093Z,1010
2018-09-02T01:37:44.621Z,1010.03
2018-09-02T01:38:25.136Z,1010.04
2018-09-02T01:39:05.657Z,1010.07
2018-09-02T01:39:46.170Z,1010.08
2018-09-02T01:40:26.689Z,1010.06
2018-09-02T01:41:07.212Z,1010.05
2018-09-02T01:41:47.711Z,1010.06
2018-09-02T01:42:28.229Z,1010.04
2018-09-02T01:43:08.745Z,1010
2018-09-02T01:43:49.267Z,1010.01
2018-09-02T01:44:29.791Z,1010.04
2018-09-02T01:45:10.309Z,1010.03
2018-09-02T01:45:50.835Z,1010.03
2018-09-02T01:46:31.345Z,1010.03
2018-09-02T01:47:11.859Z,1010.02
2018-09-02T01:47:52.375Z,1010.06
2018-09-02T01:48:32.924Z,1010.02
2018-09-02T01:49:13.440Z,1010.06
2018-09-02T01:49:53.960Z,1010.03
2018-09-02T01:50:34.480Z,1010.06
2018-09-02T01:51:14.985Z,1010.08
2018-09-02T01:51:55.499Z,1010.03
2018-09-02T01:52:36.027Z,1010.05
2018-09-02T01:53:16.556Z,1010.06
2018-09-02T01:53:57.072Z,1010.04
2018-09-02T01:54:37.716Z,1010.03
2018-09-02T01:55:18.237Z,1010.06
2018-09-02T01:55:58.757Z,1010.05
2018-09-02T01:56:39.273Z,1010.04
2018-09-02T01:57:19.795Z,1010.03
2018-09-02T01:58:00.313Z,1010.04
2018-09-02T01:58:40.830Z,1010.01
2018-09-02T01:59:21.348Z,1010
2018-09-02T02:00:01.887Z,1010.01
2018-09-02T02:00:42.786Z,1009.99
2018-09-02T02:01:23.321Z,1010.04
2018-09-02T02:02:03.836Z,1010
2018-09-02T02:02:44.409Z,1009.95
2018-09-02T02:03:24.871Z,1009.99
2018-09-02T02:04:05.396Z,1009.98
2018-09-02T02:04:45.935Z,1009.94
2018-09-02T02:05:26.438Z,1009.95
2018-09-02T02:06:06.953Z,1010
2018-09-02T02:06:47.471Z,1009.91
2018-09-02T02:07:27.990Z,1009.93
2018-09-02T02:08:08.580Z,1009.9
2018-09-02T02:08:49.131Z,1009.83
2018-09-02T02:09:29.655Z,1009.85
2018-09-02T02:10:10.188Z,1009.87
2018-09-02T02:10:50.723Z,1009.85
2018-09-02T02:11:31.225Z,1009.87
2018-09-02T02:12:11.734Z,1009.85
2018-09-02T02:12:52.241Z,1009.86
2018-09-02T02:13:32.749Z,1009.85
2018-09-02T02:14:13.329Z,1009.78
2018-09-02T02:14:53.846Z,1009.82
2018-09-02T02:15:34.367Z,1009.83
2018-09-02T02:16:14.884Z,1009.84
2018-09-02T02:16:55.409Z,1009.8
2018-09-02T02:17:35.931Z,1009.85
2018-09-02T02:18:16.450Z,1009.77
2018-09-02T02:18:56.967Z,1009.78
2018-09-02T02:19:37.489Z,1009.76
2018-09-02T02:20:18.019Z,1009.79
2018-09-02T02:20:58.770Z,1009.76
2018-09-02T02:21:39.327Z,1009.77
2018-09-02T02:22:20.035Z,1009.75
2018-09-02T02:23:00.555Z,1009.74
2018-09-02T02:23:41.097Z,1009.75
2018-09-02T02:24:21.604Z,1009.76
2018-09-02T02:25:02.116Z,1009.72
2018-09-02T02:25:42.640Z,1009.73
2018-09-02T02:26:23.164Z,1009.78
2018-09-02T02:27:03.684Z,1009.73
2018-09-02T02:27:44.212Z,1009.79
2018-09-02T02:28:24.742Z,1009.77
2018-09-02T02:29:05.261Z,1009.76
2018-09-02T02:31:03.769Z,1009.75
2018-09-02T02:31:44.286Z,1009.76
2018-09-02T02:32:24.800Z,1009.72
2018-09-02T02:33:05.319Z,1009.78
2018-09-02T02:33:45.845Z,1009.77
2018-09-02T02:36:03.793Z,1009.73
2018-09-02T02:36:44.318Z,1009.73
2018-09-02T02:37:24.846Z,1009.72
2018-09-02T02:38:05.359Z,1009.76
2018-09-02T02:38:45.883Z,1009.74
2018-09-02T02:39:26.469Z,1009.75
2018-09-02T02:40:06.990Z,1009.71
2018-09-02T02:40:47.538Z,1009.73
2018-09-02T02:41:28.055Z,1009.72
2018-09-02T02:42:08.571Z,1009.75
2018-09-02T02:42:49.091Z,1009.67
2018-09-02T02:43:29.601Z,1009.7
2018-09-02T02:44:10.124Z,1009.68
2018-09-02T02:44:50.646Z,1009.65
2018-09-02T02:45:31.174Z,1009.68
2018-09-02T02:46:11.747Z,1009.67
2018-09-02T02:46:52.247Z,1009.67
2018-09-02T02:47:32.755Z,1009.7
2018-09-02T02:48:13.265Z,1009.7
2018-09-02T02:48:53.779Z,1009.66
2018-09-02T02:49:34.302Z,1009.7
2018-09-02T02:50:14.822Z,1009.66
2018-09-02T02:50:55.341Z,1009.62
2018-09-02T02:51:35.857Z,1009.63
2018-09-02T02:52:16.373Z,1009.66
2018-09-02T02:52:56.884Z,1009.65
2018-09-02T02:53:37.405Z,1009.62
2018-09-02T02:56:06.040Z,1009.63
2018-09-02T02:56:46.580Z,1009.59
2018-09-02T02:57:27.112Z,1009.6
2018-09-02T02:58:07.644Z,1009.56
2018-09-02T02:58:48.230Z,1009.55
2018-09-02T02:59:28.769Z,1009.58
2018-09-02T03:00:09.301Z,1009.58
2018-09-02T03:00:49.814Z,1009.55
2018-09-02T03:01:30.350Z,1009.56
2018-09-02T03:02:10.849Z,1009.54
2018-09-02T03:02:51.370Z,1009.54
2018-09-02T03:03:31.879Z,1009.49
2018-09-02T03:04:12.404Z,1009.48
2018-09-02T03:04:52.909Z,1009.51
2018-09-02T03:05:33.426Z,1009.52
2018-09-02T03:06:13.944Z,1009.51
2018-09-02T03:06:54.462Z,1009.49
2018-09-02T03:07:34.959Z,1009.46
2018-09-02T03:08:15.480Z,1009.45
2018-09-02T03:08:56.004Z,1009.47
2018-09-02T03:09:36.525Z,1009.41
2018-09-02T03:10:17.035Z,1009.45
2018-09-02T03:10:57.569Z,1009.38
2018-09-02T03:11:38.087Z,1009.34
2018-09-02T03:12:18.606Z,1009.37
2018-09-02T03:12:59.134Z,1009.41
2018-09-02T03:13:39.659Z,1009.43
2018-09-02T03:14:20.184Z,1009.42
2018-09-02T03:15:00.700Z,1009.38
2018-09-02T03:15:41.245Z,1009.35
2018-09-02T03:16:21.768Z,1009.42
2018-09-02T03:17:02.299Z,1009.37
2018-09-02T03:17:42.812Z,1009.36
2018-09-02T03:18:23.323Z,1009.35
2018-09-02T03:20:41.241Z,1009.37
2018-09-02T03:21:21.761Z,1009.38
2018-09-02T03:22:02.267Z,1009.37
2018-09-02T03:22:42.804Z,1009.39
2018-09-02T03:23:23.320Z,1009.41
2018-09-02T03:24:03.855Z,1009.36
2018-09-02T03:24:44.366Z,1009.38
2018-09-02T03:25:24.871Z,1009.38
2018-09-02T03:26:05.381Z,1009.41
2018-09-02T03:26:45.887Z,1009.4
2018-09-02T03:27:26.382Z,1009.39
2018-09-02T03:28:06.900Z,1009.35
2018-09-02T03:28:47.419Z,1009.37
2018-09-02T03:29:27.934Z,1009.4
2018-09-02T03:30:08.456Z,1009.42
2018-09-02T03:30:48.989Z,1009.38
2018-09-02T03:31:29.508Z,1009.38
2018-09-02T03:32:10.039Z,1009.39
2018-09-02T03:32:50.556Z,1009.46
2018-09-02T03:33:31.104Z,1009.45
2018-09-02T03:34:11.684Z,1009.4
2018-09-02T03:34:52.235Z,1009.34
2018-09-02T03:35:32.760Z,1009.32
2018-09-02T03:36:13.310Z,1009.36
2018-09-02T03:36:53.817Z,1009.42
2018-09-02T03:37:34.334Z,1009.31
2018-09-02T03:38:14.846Z,1009.33
2018-09-02T03:38:55.361Z,1009.31
2018-09-02T03:39:35.879Z,1009.28
2018-09-02T03:40:16.634Z,1009.27
2018-09-02T03:40:57.139Z,1009.3
2018-09-02T03:41:37.666Z,1009.32
2018-09-02T03:42:18.184Z,1009.29
2018-09-02T03:42:58.696Z,1009.25
2018-09-02T03:43:39.231Z,1009.25
2018-09-02T03:44:19.735Z,1009.27
2018-09-02T03:45:00.262Z,1009.28
2018-09-02T03:45:40.776Z,1009.29
2018-09-02T03:46:21.302Z,1009.27
2018-09-02T03:47:01.811Z,1009.26
2018-09-02T03:47:42.326Z,1009.24
2018-09-02T03:48:22.849Z,1009.27
2018-09-02T03:49:03.382Z,1009.25
2018-09-02T03:49:43.906Z,1009.25
2018-09-02T03:50:24.538Z,1009.26
2018-09-02T03:51:05.069Z,1009.24
2018-09-02T03:51:45.591Z,1009.26
2018-09-02T03:52:26.096Z,1009.26
2018-09-02T03:53:06.615Z,1009.27
2018-09-02T03:53:47.155Z,1009.25
2018-09-02T03:54:27.903Z,1009.23
2018-09-02T03:55:08.432Z,1009.27
2018-09-02T03:55:49.320Z,1009.29
2018-09-02T03:57:41.894Z,1009.27
2018-09-02T03:58:22.404Z,1009.31
2018-09-02T03:59:02.923Z,1009.31
2018-09-02T03:59:43.451Z,1009.25
2018-09-02T04:00:23.971Z,1009.24
2018-09-02T04:01:04.491Z,1009.29
2018-09-02T04:01:45.008Z,1009.28
2018-09-02T04:02:25.525Z,1009.25
2018-09-02T04:03:06.056Z,1009.28
2018-09-02T04:03:46.570Z,1009.24
2018-09-02T04:04:27.082Z,1009.23
2018-09-02T04:05:07.603Z,1009.21
2018-09-02T04:05:48.124Z,1009.23
2018-09-02T04:06:28.650Z,1009.31
2018-09-02T04:07:09.165Z,1009.28
2018-09-02T04:07:49.695Z,1009.25
2018-09-02T04:08:30.215Z,1009.27
2018-09-02T04:09:10.746Z,1009.24
2018-09-02T04:09:51.262Z,1009.28
2018-09-02T04:10:31.796Z,1009.24
2018-09-02T04:11:12.355Z,1009.21
2018-09-02T04:11:52.833Z,1009.23
2018-09-02T04:12:33.343Z,1009.25
2018-09-02T04:13:13.858Z,1009.29
2018-09-02T04:13:54.455Z,1009.28
2018-09-02T04:14:34.974Z,1009.32
2018-09-02T04:15:15.482Z,1009.28
2018-09-02T04:15:56.004Z,1009.25
2018-09-02T04:16:36.534Z,1009.29
2018-09-02T04:17:17.039Z,1009.33
2018-09-02T04:17:57.561Z,1009.31
2018-09-02T04:18:38.078Z,1009.3
2018-09-02T04:19:18.593Z,1009.28
2018-09-02T04:21:47.378Z,1009.29
2018-09-02T04:22:27.895Z,1009.28
2018-09-02T04:23:08.416Z,1009.29
2018-09-02T04:23:48.997Z,1009.28
2018-09-02T04:24:29.464Z,1009.25
2018-09-02T04:25:09.985Z,1009.24
2018-09-02T04:25:50.617Z,1009.25
2018-09-02T04:26:31.166Z,1009.23
2018-09-02T04:27:11.688Z,1009.32
2018-09-02T04:27:52.209Z,1009.22
2018-09-02T04:28:32.725Z,1009.24
2018-09-02T04:29:13.241Z,1009.25
2018-09-02T04:29:53.754Z,1009.24
2018-09-02T04:30:34.271Z,1009.24
2018-09-02T04:31:14.797Z,1009.21
2018-09-02T04:31:55.302Z,1009.21
2018-09-02T04:32:35.819Z,1009.23
2018-09-02T04:33:16.381Z,1009.27
2018-09-02T04:33:57.653Z,1009.25
2018-09-02T04:34:38.171Z,1009.25
2018-09-02T04:35:18.685Z,1009.23
2018-09-02T04:35:59.197Z,1009.22
2018-09-02T04:36:39.721Z,1009.19
2018-09-02T04:37:20.242Z,1009.23
2018-09-02T04:38:00.756Z,1009.22
2018-09-02T04:38:41.280Z,1009.19
2018-09-02T04:39:21.799Z,1009.18
2018-09-02T04:40:02.326Z,1009.21
2018-09-02T04:40:42.840Z,1009.21
2018-09-02T04:41:23.367Z,1009.23
2018-09-02T04:42:03.892Z,1009.26
2018-09-02T04:42:44.426Z,1009.17
2018-09-02T04:43:25.010Z,1009.16
2018-09-02T04:44:05.457Z,1009.18
2018-09-02T04:44:45.988Z,1009.15
2018-09-02T04:45:26.535Z,1009.13
2018-09-02T04:46:07.024Z,1009.15
2018-09-02T04:46:47.556Z,1009.19
2018-09-02T04:47:28.106Z,1009.2
2018-09-02T04:48:08.632Z,1009.13
2018-09-02T04:48:49.167Z,1009.18
2018-09-02T04:49:29.690Z,1009.13
2018-09-02T04:50:10.199Z,1009.12
2018-09-02T04:50:50.732Z,1009.14
2018-09-02T04:51:31.245Z,1009.11
2018-09-02T04:52:11.760Z,1009.17
2018-09-02T04:52:52.266Z,1009.15
2018-09-02T04:53:32.796Z,1009.12
2018-09-02T04:54:13.360Z,1009.11
2018-09-02T04:54:53.825Z,1009.11
2018-09-02T04:55:34.340Z,1009.12
2018-09-02T04:56:14.865Z,1009.15
2018-09-02T04:56:55.399Z,1009.13
2018-09-02T04:57:35.915Z,1009.1
2018-09-02T04:58:16.443Z,1009.09
2018-09-02T04:58:56.960Z,1009.09
2018-09-02T04:59:37.472Z,1009.12
2018-09-02T05:00:18.036Z,1009.12
2018-09-02T05:00:58.527Z,1009.08
2018-09-02T05:01:39.034Z,1009.09
2018-09-02T05:02:19.557Z,1009.15
2018-09-02T05:03:00.073Z,1009.13
2018-09-02T05:03:40.589Z,1009.13
2018-09-02T05:04:21.120Z,1009.13
2018-09-02T05:05:01.626Z,1009.14
2018-09-02T05:05:42.141Z,1009.07
2018-09-02T05:06:22.651Z,1009.08
2018-09-02T05:07:03.169Z,1009.12
2018-09-02T05:07:43.683Z,1009.01
2018-09-02T05:08:24.204Z,1009.04
2018-09-02T05:09:04.724Z,1009.04
2018-09-02T05:09:45.240Z,1009.06
2018-09-02T05:10:25.745Z,1009.01
2018-09-02T05:11:06.263Z,1009.07
2018-09-02T05:11:46.791Z,1009.09
2018-09-02T05:12:27.318Z,1009.04
2018-09-02T05:13:07.837Z,1009.06
2018-09-02T05:13:48.352Z,1009.08
2018-09-02T05:14:28.883Z,1009.08
2018-09-02T05:15:09.387Z,1009.06
2018-09-02T05:15:49.899Z,1009.06
2018-09-02T05:16:30.423Z,1009.05
2018-09-02T05:17:10.951Z,1009.03
2018-09-02T05:17:51.446Z,1009.03
2018-09-02T05:18:31.980Z,1009.06
2018-09-02T05:19:12.517Z,1009.05
2018-09-02T05:19:53.036Z,1009.04
2018-09-02T05:20:33.549Z,1009.03
2018-09-02T05:21:14.066Z,1009.02
2018-09-02T05:21:54.576Z,1009.05
2018-09-02T05:22:35.278Z,1009.05
2018-09-02T05:23:15.785Z,1009.01
2018-09-02T05:23:56.315Z,1009.03
2018-09-02T05:24:36.833Z,1009.06
2018-09-02T05:25:17.350Z,1009.03
2018-09-02T05:25:57.874Z,1009.05
2018-09-02T05:26:38.375Z,1009.04
2018-09-02T05:27:18.886Z,1009.09
2018-09-02T05:27:59.419Z,1009.1
2018-09-02T05:28:39.933Z,1009.14
2018-09-02T05:29:20.452Z,1009.13
2018-09-02T05:30:01.034Z,1009.1
2018-09-02T05:30:41.535Z,1009.09
2018-09-02T05:31:22.052Z,1009.1
2018-09-02T05:32:02.588Z,1009.11
2018-09-02T05:32:43.100Z,1009.08
2018-09-02T05:33:23.619Z,1009.14
2018-09-02T05:34:04.153Z,1009.13
2018-09-02T05:34:44.661Z,1009.13
2018-09-02T05:35:25.177Z,1009.15
2018-09-02T05:36:05.686Z,1009.12
2018-09-02T05:36:46.217Z,1009.11
2018-09-02T05:37:26.726Z,1009.07
2018-09-02T05:38:07.233Z,1009.09
2018-09-02T05:38:47.758Z,1009.1
2018-09-02T05:39:28.278Z,1009.06
2018-09-02T05:40:08.805Z,1009.05
2018-09-02T05:40:49.324Z,1009.1
2018-09-02T05:41:29.852Z,1009.02
2018-09-02T05:42:10.367Z,1009.07
2018-09-02T05:42:50.875Z,1009.08
2018-09-02T05:43:31.389Z,1009.09
2018-09-02T05:44:11.902Z,1009.07
2018-09-02T05:44:52.434Z,1009.06
2018-09-02T05:45:32.944Z,1009.06
2018-09-02T05:46:13.451Z,1009.04
2018-09-02T05:46:53.973Z,1009.02
2018-09-02T05:47:34.494Z,1009.02
2018-09-02T05:48:15.009Z,1008.97
2018-09-02T05:48:55.533Z,1009.01
2018-09-02T05:49:36.058Z,1009.01
2018-09-02T05:50:16.571Z,1009.03
2018-09-02T05:50:57.088Z,1009.03
2018-09-02T05:51:37.608Z,1008.96
2018-09-02T05:52:18.127Z,1009.04
2018-09-02T05:52:58.665Z,1009.03
2018-09-02T05:53:39.191Z,1009.02
2018-09-02T05:54:19.705Z,1009
2018-09-02T05:55:00.231Z,1008.99
2018-09-02T05:55:40.744Z,1008.99
2018-09-02T05:56:21.270Z,1009.06
2018-09-02T05:57:01.790Z,1009.05
2018-09-02T05:57:42.497Z,1009.05
2018-09-02T05:58:22.818Z,1009.06
2018-09-02T05:59:03.344Z,1009.07
2018-09-02T05:59:43.847Z,1009.07
2018-09-02T06:00:24.365Z,1009.11
2018-09-02T06:01:04.869Z,1009.12
2018-09-02T06:01:45.394Z,1009.15
2018-09-02T06:02:25.926Z,1009.13
2018-09-02T06:03:06.463Z,1009.11
2018-09-02T06:03:46.980Z,1009.17
2018-09-02T06:04:27.505Z,1009.14
2018-09-02T06:05:08.031Z,1009.12
2018-09-02T06:05:48.564Z,1009.16
2018-09-02T06:06:29.092Z,1009.13
2018-09-02T06:07:09.623Z,1009.1
2018-09-02T06:07:50.147Z,1009.11
2018-09-02T06:08:30.663Z,1009.09
2018-09-02T06:09:11.177Z,1009.1
2018-09-02T06:09:51.689Z,1009.12
2018-09-02T06:10:32.199Z,1009.14
2018-09-02T06:11:12.719Z,1009.07
2018-09-02T06:11:53.241Z,1009.13
2018-09-02T06:12:33.764Z,1009.12
2018-09-02T06:13:14.272Z,1009.1
2018-09-02T06:13:54.786Z,1009.11
2018-09-02T06:14:35.311Z,1009.12
2018-09-02T06:15:15.836Z,1009.1
2018-09-02T06:15:56.361Z,1009.08
2018-09-02T06:16:36.882Z,1009.09
2018-09-02T06:17:17.413Z,1009.09
2018-09-02T06:17:57.904Z,1009.1
2018-09-02T06:18:38.427Z,1009.06
2018-09-02T06:19:18.963Z,1009.03
2018-09-02T06:19:59.479Z,1009.08
2018-09-02T06:20:40.036Z,1009.08
2018-09-02T06:21:20.557Z,1009.1
2018-09-02T06:22:01.088Z,1009.05
2018-09-02T06:22:41.594Z,1009.05
2018-09-02T06:23:22.117Z,1009.09
2018-09-02T06:24:02.624Z,1009.1
2018-09-02T06:24:43.204Z,1009.07
2018-09-02T06:25:23.723Z,1009.07
2018-09-02T06:26:04.233Z,1009.08
2018-09-02T06:26:44.772Z,1009.11
2018-09-02T06:27:25.316Z,1009.08
2018-09-02T06:28:05.966Z,1009.07
2018-09-02T06:28:46.502Z,1009.09
2018-09-02T06:29:27.023Z,1009.11
2018-09-02T06:30:07.618Z,1009.11
2018-09-02T06:30:48.072Z,1009.09
2018-09-02T06:31:28.585Z,1009.1
2018-09-02T06:32:09.089Z,1009.13
2018-09-02T06:32:49.728Z,1009.11
2018-09-02T06:33:30.124Z,1009.1
2018-09-02T06:34:10.641Z,1009.1
2018-09-02T06:34:51.160Z,1009.12
2018-09-02T06:35:31.712Z,1009.08
2018-09-02T06:36:12.208Z,1009.08
2018-09-02T06:36:52.736Z,1009.06
2018-09-02T06:37:33.247Z,1009.08
2018-09-02T06:38:13.756Z,1009.06
2018-09-02T06:38:54.275Z,1009.07
2018-09-02T06:39:34.832Z,1009.05
2018-09-02T06:40:15.312Z,1009.05
2018-09-02T06:40:55.818Z,1009.03
2018-09-02T06:41:36.346Z,1008.99
2018-09-02T06:42:16.857Z,1009
2018-09-02T06:42:57.374Z,1009.07
2018-09-02T06:43:37.903Z,1009.08
2018-09-02T06:44:18.427Z,1009.06
2018-09-02T06:44:58.947Z,1009.06
2018-09-02T06:45:39.530Z,1009.05
2018-09-02T06:46:19.981Z,1009.02
2018-09-02T06:47:00.488Z,1009.03
2018-09-02T06:47:41.004Z,1009.03
2018-09-02T06:48:21.570Z,1009.05
2018-09-02T06:49:02.816Z,1009.04
2018-09-02T06:49:43.360Z,1009.02
2018-09-02T06:50:23.894Z,1009.01
2018-09-02T06:51:04.423Z,1009.06
2018-09-02T06:51:44.932Z,1009.03
2018-09-02T06:52:25.461Z,1009.03
2018-09-02T06:53:05.965Z,1009.05
2018-09-02T06:53:46.496Z,1009.1
2018-09-02T06:54:27.030Z,1009.11
2018-09-02T06:55:07.545Z,1009.11
2018-09-02T06:55:48.062Z,1009.08
2018-09-02T06:56:28.583Z,1009.14
2018-09-02T06:57:09.098Z,1009.12
2018-09-02T06:57:49.608Z,1009.09
2018-09-02T06:58:30.134Z,1009.14
2018-09-02T06:59:10.650Z,1009.08
2018-09-02T06:59:51.167Z,1009.12
2018-09-02T07:00:31.691Z,1009.1
2018-09-02T07:01:12.206Z,1009.07
2018-09-02T07:01:52.728Z,1009.14
2018-09-02T07:02:33.910Z,1009.08
2018-09-02T07:03:13.928Z,1009.08
2018-09-02T07:03:54.455Z,1009.1
2018-09-02T07:04:34.965Z,1009.05
2018-09-02T07:05:15.487Z,1009.05
2018-09-02T07:05:56.004Z,1009.04
2018-09-02T07:06:36.519Z,1009.09
2018-09-02T07:07:17.027Z,1009.02
2018-09-02T07:07:57.548Z,1009.06
2018-09-02T07:08:38.067Z,1009.06
2018-09-02T07:09:18.599Z,1009.05
2018-09-02T07:09:59.113Z,1009.08
2018-09-02T07:10:39.635Z,1009.02
2018-09-02T07:11:20.150Z,1009.08
2018-09-02T07:12:00.668Z,1009.06
2018-09-02T07:12:41.209Z,1009.05
2018-09-02T07:13:21.724Z,1009.07
2018-09-02T07:14:02.256Z,1009
2018-09-02T07:14:42.770Z,1009.08
2018-09-02T07:15:23.289Z,1009.08
2018-09-02T07:16:03.838Z,1009.06
2018-09-02T07:16:44.384Z,1009.05
2018-09-02T07:17:24.895Z,1009.1
2018-09-02T07:18:05.406Z,1009.09
2018-09-02T07:18:45.936Z,1009.14
2018-09-02T07:19:26.503Z,1009.08
2018-09-02T07:20:07.120Z,1009.09
2018-09-02T07:20:47.569Z,1009.1
2018-09-02T07:21:28.112Z,1009.12
2018-09-02T07:22:08.625Z,1009.15
2018-09-02T07:22:49.147Z,1009.17
2018-09-02T07:23:29.673Z,1009.11
2018-09-02T07:24:10.301Z,1009.12
2018-09-02T07:24:50.817Z,1009.14
2018-09-02T07:25:31.336Z,1009.1
2018-09-02T07:26:11.863Z,1009.06
2018-09-02T07:26:52.372Z,1009.1
2018-09-02T07:27:32.908Z,1009.09
2018-09-02T07:28:13.416Z,1009.13
2018-09-02T07:28:53.939Z,1009.16
2018-09-02T07:29:34.462Z,1009.11
2018-09-02T07:30:14.990Z,1009.1
2018-09-02T07:30:55.535Z,1009.12
2018-09-02T07:31:36.313Z,1009.12
2018-09-02T07:32:16.600Z,1009.12
2018-09-02T07:32:57.119Z,1009.12
2018-09-02T07:33:37.654Z,1009.1
2018-09-02T07:34:18.169Z,1009.1
2018-09-02T07:34:58.681Z,1009.15
2018-09-02T07:35:39.200Z,1009.1
2018-09-02T07:36:19.717Z,1009.06
2018-09-02T07:37:00.249Z,1009.01
2018-09-02T07:37:40.772Z,1009.08
2018-09-02T07:38:21.400Z,1009.04
2018-09-02T07:39:01.883Z,1009.08
2018-09-02T07:39:42.411Z,1009.06
2018-09-02T07:40:22.931Z,1009.07
2018-09-02T07:41:03.448Z,1009.08
2018-09-02T07:41:43.980Z,1009.09
2018-09-02T07:42:24.497Z,1009.07
2018-09-02T07:43:05.017Z,1009.09
2018-09-02T07:43:45.615Z,1009.12
2018-09-02T07:44:26.417Z,1009.06
2018-09-02T07:45:06.985Z,1009.03
2018-09-02T07:45:47.527Z,1009.08
2018-09-02T07:46:28.022Z,1009.02
2018-09-02T07:48:46.391Z,1009.11
2018-09-02T07:49:26.912Z,1009.11
2018-09-02T07:50:07.449Z,1009.11
2018-09-02T07:50:47.961Z,1009.09
2018-09-02T07:51:28.484Z,1009.05
2018-09-02T07:52:09.005Z,1009.07
2018-09-02T07:52:49.521Z,1009.08
2018-09-02T07:53:30.035Z,1009.1
2018-09-02T07:54:10.574Z,1009.09
2018-09-02T07:54:51.105Z,1009.07
2018-09-02T07:55:31.630Z,1009.08
2018-09-02T07:56:12.188Z,1009.07
2018-09-02T07:56:52.724Z,1009.03
2018-09-02T07:57:33.247Z,1009.11
2018-09-02T07:58:13.767Z,1009.1
2018-09-02T07:58:54.300Z,1009.13
2018-09-02T07:59:34.817Z,1009.09
2018-09-02T08:00:15.344Z,1009.11
2018-09-02T08:00:55.862Z,1009.13
2018-09-02T08:01:36.378Z,1009.13
2018-09-02T08:02:16.890Z,1009.06
2018-09-02T08:02:57.418Z,1009.11
2018-09-02T08:03:38.173Z,1009.1
2018-09-02T08:04:18.603Z,1009.15
2018-09-02T08:04:59.119Z,1009.1
2018-09-02T08:05:39.648Z,1009.13
2018-09-02T08:06:20.179Z,1009.11
2018-09-02T08:07:00.703Z,1009.12
2018-09-02T08:07:41.221Z,1009.08
2018-09-02T08:08:21.742Z,1009.09
2018-09-02T08:09:02.273Z,1009.09
2018-09-02T08:09:42.809Z,1009.09
2018-09-02T08:10:23.348Z,1009.04
2018-09-02T08:11:03.868Z,1009.06
2018-09-02T08:11:44.392Z,1009.09
2018-09-02T08:12:24.948Z,1009.11
2018-09-02T08:13:05.451Z,1009.12
2018-09-02T08:13:45.948Z,1009.12
2018-09-02T08:14:26.485Z,1009.1
2018-09-02T08:15:07.020Z,1009.09
2018-09-02T08:15:47.543Z,1009.08
2018-09-02T08:16:28.081Z,1009.13
2018-09-02T08:17:08.602Z,1009.12
2018-09-02T08:17:49.122Z,1009.12
2018-09-02T08:18:29.656Z,1009.07
2018-09-02T08:19:10.187Z,1009.08
2018-09-02T08:19:50.739Z,1009.14
2018-09-02T08:20:31.226Z,1009.12
2018-09-02T08:21:11.736Z,1009.16
2018-09-02T08:21:52.305Z,1009.18
2018-09-02T08:22:32.845Z,1009.1
2018-09-02T08:23:13.358Z,1009.15